23 maggio 2022

Tempo Codice Tempo metereologico Temp. Vista Nuvole Vento METAR/SPECI
10:00
I
16 °C 7 km 500 ft 230°   230° 12 kt METAR LFBU 230800Z AUTO 23012KT 7000 +RA OVC005/// ///CB 16/15 Q1007 TEMPO 2000 TSRA
09:30
I
16 °C 9 km 600 ft 220°   220° 11 kt METAR LFBU 230730Z AUTO 22011KT 200V260 9000 RA OVC006/// ///CB 16/15 Q1007 TEMPO 2000 TSRA
09:00
I
17 °C 10 km+ 500 ft 210°   210° 11 kt METAR LFBU 230700Z AUTO 21011KT 180V240 9999 -RA OVC005/// ///CB 17/16 Q1007 TEMPO 2000 TSRA
08:30
L
16 °C 4,4 km 300 ft 190°   190° 8 kt METAR LFBU 230630Z AUTO 19008KT 160V230 4400 -RA BR OVC003/// ///CB 16/16 Q1006
08:00
I
16 °C 2,8 km 700 ft 190°   190° 9 kt METAR LFBU 230600Z AUTO 19009KT 160V230 2800 -DZ BR OVC007/// ///CB 16/15 Q1006 TEMPO 4000 -SHRA
07:30
M
17 °C 10 km+ 1.200 ft 190°   190° 9 kt METAR LFBU 230530Z AUTO 19009KT 160V240 9999 OVC012 17/15 Q1006
07:00
M
17 °C 10 km+ 1.100 ft 200°   200° 9 kt METAR LFBU 230500Z AUTO 20009KT 170V230 9999 OVC011 17/15 Q1006
06:30
M
18 °C 10 km+ 1.500 ft 190°   190° 8 kt METAR LFBU 230430Z AUTO 19008KT 150V240 9999 OVC015 18/15 Q1006
06:00
M
18 °C 10 km+ 1.300 ft 200°   200° 11 kt METAR LFBU 230400Z AUTO 20011KT 160V240 9999 BKN013 OVC018 18/15 Q1007
05:30
M
18 °C 10 km+ 1.000 ft 200°   200° 9 kt METAR LFBU 230330Z AUTO 20009KT 9999 BKN010 OVC020 18/16 Q1007
05:00
I
17 °C 10 km+ 900 ft 200°   200° 7 kt METAR LFBU 230300Z AUTO 20007KT 160V250 9999 BKN009 BKN018 BKN030 17/16 Q1007
04:30
M
18 °C 10 km+ 1.100 ft 200°   200° 7 kt METAR LFBU 230230Z AUTO 20007KT 170V250 9999 -RADZ OVC011 18/16 Q1007
04:00
M
17 °C 10 km+ 1.100 ft 170°   170° 5 kt METAR LFBU 230200Z AUTO 17005KT 130V220 9999 BKN011/// BKN120/// ///TCU 17/16 Q1006
03:30
V
18 °C 10 km+ - 190°   190° 5 kt METAR LFBU 230130Z AUTO 19005KT 150V220 9999 SCT012 18/16 Q1006
03:00
M
18 °C 10 km+ 1.300 ft 230°   230° 13 kt METAR LFBU 230100Z AUTO 23013KT 9999 BKN013 BKN020 BKN025 18/16 Q1007
02:30
V
18 °C 10 km+ - 180°   180° 4 kt METAR LFBU 230030Z AUTO 18004KT 150V230 CAVOK 18/16 Q1007
02:00
V
18 °C 10 km+ - 180°   180° 3 kt METAR LFBU 230000Z AUTO 18003KT 120V230 9999 ///CB 18/16 Q1007
01:30
V
19 °C 10 km+ - 250°   250° 6 kt METAR LFBU 222330Z AUTO 25006KT 220V280 CAVOK 19/16 Q1007
01:00
V
19 °C 10 km+ - 250°   250° 12 kt METAR LFBU 222300Z AUTO 25012KT 9999 FEW018/// SCT230/// ///CB 19/16 Q1007
00:30
V
21 °C 10 km+ 25.000 ft 230°   230° 14 25 kt METAR LFBU 222230Z AUTO 23014G25KT 200V260 9999 VCTS FEW020/// SCT120/// BKN250/// ///CB 21/17 Q1008
00:00
V
21 °C 10 km+ - 230°   230° 8 kt METAR LFBU 222200Z AUTO 23008KT 200V270 9999 ///CB 21/19 Q1007

22 maggio 2022

Tempo Codice Tempo metereologico Temp. Vista Nuvole Vento METAR/SPECI
23:30
V
22 °C 10 km+ - 220°   220° 5 kt METAR LFBU 222130Z AUTO 22005KT 120V280 9999 VCTS ///CB 22/18 Q1006
23:00
V
23 °C 10 km+ - 230°   230° 4 kt METAR LFBU 222100Z AUTO 23004KT 190V260 9999 VCTS ///CB 23/18 Q1006 BECMG NSW BKN010
22:30
V
24 °C 10 km+ - 250°   250° 6 kt METAR LFBU 222030Z AUTO 25006KT 9999 ///CB 24/18 Q1006 BECMG 18010KT BKN010
22:00
V
23 °C 10 km+ - 250°   250° 8 kt METAR LFBU 222000Z AUTO 25008KT 9999 VCTS FEW036/// SCT090/// ///CB 23/19 Q1006 TEMPO 4000 TSRAGR BECMG 18010KT NSC
21:30
V
28 °C 10 km+ 4.700 ft 220°   220° 8 kt METAR LFBU 221930Z AUTO 22008KT 190V250 9999 TSRA FEW041/// BKN047/// BKN054/// ///CB 28/18 Q1006 TEMPO VRB20G40KT 4000 TSRAGR BECMG NSC
21:00
V
29 °C 10 km+ - 200°   200° 3 kt METAR LFBU 221900Z AUTO 20003KT 160V240 9999 ///CB 29/19 Q1006 TEMPO VRB20G40KT 4000 TSRAGR
20:30
V
29 °C 10 km+ - 240°   240° 5 kt METAR LFBU 221830Z AUTO 24005KT CAVOK 29/19 Q1006 TEMPO VRB20G40KT 4000 TSRAGR BKN070CB
20:00
V
30 °C 10 km+ - 210°   210° 6 kt METAR LFBU 221800Z AUTO 21006KT 180V240 CAVOK 30/19 Q1006 TEMPO VRB20G40KT 4000 TSRAGR BKN070CB
19:30
V
29 °C 10 km+ - 160°   160° 4 kt METAR LFBU 221730Z AUTO 16004KT 9999 ///TCU 29/19 Q1005 TEMPO VRB20G40KT 4000 TSRAGR BKN060CB
19:00
V
30 °C 10 km+ - 160°   160° 3 kt METAR LFBU 221700Z AUTO 16003KT 120V200 CAVOK 30/18 Q1006 TEMPO VRB20G40KT 4000 TSRAGR BKN060CB
18:30
V
30 °C 10 km+ - 150°   150° 4 kt METAR LFBU 221630Z AUTO 15004KT 110V190 CAVOK 30/18 Q1006 TEMPO VRB20G40KT 4000 TSRAGR BKN060CB
18:00
V
30 °C 10 km+ - 160°   160° 7 kt METAR LFBU 221600Z AUTO 16007KT 130V210 CAVOK 30/18 Q1006 NOSIG
17:30
V
30 °C 10 km+ - 140°   140° 4 kt METAR LFBU 221530Z AUTO 14004KT 060V200 CAVOK 30/19 Q1006 TEMPO VRB20G40KT 4000 TSRAGR BKN060CB
17:00
V
31 °C 10 km+ - 150°   150° 7 kt METAR LFBU 221500Z AUTO 15007KT 080V190 CAVOK 31/19 Q1006 NOSIG
16:30
V
31 °C 10 km+ - 150°   150° 4 kt METAR LFBU 221430Z AUTO 15004KT 100V240 CAVOK 31/19 Q1007 NOSIG
16:00
V
32 °C 10 km+ - 120°   120° 5 kt METAR LFBU 221400Z AUTO 12005KT 060V200 CAVOK 32/19 Q1007 NOSIG
15:30
V
31 °C 10 km+ - 180°   180° 5 kt METAR LFBU 221330Z AUTO 18005KT 130V220 CAVOK 31/20 Q1008 NOSIG
15:00
V
31 °C 10 km+ - 150°   150° 5 kt METAR LFBU 221300Z AUTO 15005KT 110V190 9999 FEW034 31/20 Q1008 TEMPO SCT060TCU
14:30
V
30 °C 10 km+ - 150°   150° 5 kt METAR LFBU 221230Z AUTO 15005KT 070V210 CAVOK 30/20 Q1009 TEMPO SCT060TCU
14:00
V
29 °C 10 km+ - Var   Var 2 kt METAR LFBU 221200Z AUTO VRB02KT CAVOK 29/20 Q1009 TEMPO SCT060TCU
13:30
V
28 °C 10 km+ - Var   Var 2 kt METAR LFBU 221130Z AUTO VRB02KT 9999 ///TCU 28/20 Q1009 BECMG NSC
13:00
V
27 °C 10 km+ - Var   Var 3 kt METAR LFBU 221100Z AUTO VRB03KT CAVOK 27/19 Q1010 NOSIG
12:30
V
25 °C 10 km+ 14.000 ft 350°   350° 4 kt METAR LFBU 221030Z AUTO 35004KT 270V030 9999 FEW036 OVC140 25/18 Q1010 BECMG 18010KT
12:00
V
25 °C 10 km+ - 280°   280° 10 kt METAR LFBU 221000Z AUTO 28010KT 9999 ///CB 25/18 Q1011 BECMG 04007KT NSC
11:30
V
26 °C 10 km+ - Var   Var 2 kt METAR LFBU 220930Z AUTO VRB02KT CAVOK 26/18 Q1011 NOSIG
11:00
V
24 °C 10 km+ - Var   Var 3 kt METAR LFBU 220900Z AUTO VRB03KT CAVOK 24/18 Q1010 NOSIG
10:30
V
22 °C 10 km+ - 120°   120° 4 kt METAR LFBU 220830Z AUTO 12004KT 060V170 CAVOK 22/18 Q1011 NOSIG
10:00
V
21 °C 10 km+ - 100°   100° 6 kt METAR LFBU 220800Z AUTO 10006KT 060V140 CAVOK 21/16 Q1011 NOSIG
09:30
V
19 °C 10 km+ - 040°   040° 12 kt METAR LFBU 220730Z AUTO 04012KT CAVOK 19/15 Q1010 NOSIG
09:00
V
19 °C 10 km+ - 050°   050° 6 kt METAR LFBU 220700Z AUTO 05006KT 9999 ///TCU 19/15 Q1012 BECMG NSC
08:30
V
19 °C 10 km+ - 040°   040° 9 kt METAR LFBU 220630Z AUTO 04009KT CAVOK 19/14 Q1012 NOSIG
08:00
V
18 °C 10 km+ - 020°   020° 6 kt METAR LFBU 220600Z AUTO 02006KT CAVOK 18/14 Q1012 NOSIG
07:30
V
18 °C 10 km+ - 020°   020° 6 kt METAR LFBU 220530Z AUTO 02006KT CAVOK 18/13 Q1013
07:00
V
18 °C 10 km+ - 350°   350° 7 kt METAR LFBU 220500Z AUTO 35007KT 320V020 CAVOK 18/13 Q1013
06:30
V
18 °C 10 km+ - 010°   010° 6 kt METAR LFBU 220430Z AUTO 01006KT CAVOK 18/14 Q1013
06:00
V
18 °C 10 km+ - Var   Var 1 kt METAR LFBU 220400Z AUTO VRB01KT CAVOK 18/14 Q1013
05:30
V
19 °C 10 km+ - 360°   360° 5 kt METAR LFBU 220330Z AUTO 36005KT CAVOK 19/14 Q1013
05:00
V
19 °C 10 km+ - Var   Var 2 kt METAR LFBU 220300Z AUTO VRB02KT CAVOK 19/14 Q1013
04:30
V
19 °C 10 km+ - 030°   030° 4 kt METAR LFBU 220230Z AUTO 03004KT CAVOK 19/14 Q1013
04:00
V
20 °C 10 km+ - 030°   030° 6 kt METAR LFBU 220200Z AUTO 03006KT CAVOK 20/14 Q1013
03:30
V
20 °C 10 km+ - 360°   360° 6 kt METAR LFBU 220130Z AUTO 36006KT CAVOK 20/14 Q1013
03:00
V
20 °C 10 km+ - 030°   030° 6 kt METAR LFBU 220100Z AUTO 03006KT CAVOK 20/14 Q1013
02:30
V
21 °C 10 km+ - Var   Var 3 kt METAR LFBU 220030Z AUTO VRB03KT CAVOK 21/14 Q1014
02:00
V
22 °C 10 km+ - 030°   030° 5 kt METAR LFBU 220000Z AUTO 03005KT CAVOK 22/15 Q1014
01:30
V
22 °C 10 km+ - 010°   010° 7 kt METAR LFBU 212330Z AUTO 01007KT CAVOK 22/15 Q1014
01:00
V
23 °C 10 km+ - 030°   030° 8 kt METAR LFBU 212300Z AUTO 03008KT CAVOK 23/15 Q1014
00:30
V
23 °C 10 km+ - 040°   040° 9 kt METAR LFBU 212230Z AUTO 04009KT CAVOK 23/15 Q1014
00:00
V
24 °C 10 km+ - 030°   030° 9 kt METAR LFBU 212200Z AUTO 03009KT CAVOK 24/16 Q1015

21 maggio 2022

Tempo Codice Tempo metereologico Temp. Vista Nuvole Vento METAR/SPECI
23:30
V
24 °C 10 km+ - 030°   030° 9 kt METAR LFBU 212130Z AUTO 03009KT CAVOK 24/16 Q1015
23:00
V
24 °C 10 km+ - 020°   020° 8 kt METAR LFBU 212100Z AUTO 02008KT CAVOK 24/17 Q1016 NOSIG
22:30
V
24 °C 10 km+ - 010°   010° 7 kt METAR LFBU 212030Z AUTO 01007KT CAVOK 24/18 Q1016 NOSIG
22:00
V
25 °C 10 km+ - 030°   030° 5 kt METAR LFBU 212000Z AUTO 03005KT CAVOK 25/18 Q1015 NOSIG
21:30
V
26 °C 10 km+ - 020°   020° 5 kt METAR LFBU 211930Z AUTO 02005KT CAVOK 26/18 Q1015 NOSIG
21:00
V
27 °C 10 km+ - 030°   030° 5 kt METAR LFBU 211900Z AUTO 03005KT 360V060 CAVOK 27/18 Q1015 NOSIG
20:30
V
27 °C 10 km+ - 040°   040° 6 kt METAR LFBU 211830Z AUTO 04006KT CAVOK 27/18 Q1015 NOSIG
20:00
V
28 °C 10 km+ - 040°   040° 5 kt METAR LFBU 211800Z AUTO 04005KT CAVOK 28/18 Q1015 NOSIG
19:30
V
29 °C 10 km+ - 020°   020° 3 kt METAR LFBU 211730Z AUTO 02003KT 360V060 CAVOK 29/18 Q1016 NOSIG
19:00
V
29 °C 10 km+ - 030°   030° 4 kt METAR LFBU 211700Z AUTO 03004KT CAVOK 29/17 Q1016 NOSIG
18:30
V
30 °C 10 km+ - 040°   040° 4 kt METAR LFBU 211630Z AUTO 04004KT 360V080 CAVOK 30/17 Q1016 NOSIG
18:00
V
30 °C 10 km+ - 050°   050° 6 kt METAR LFBU 211600Z AUTO 05006KT 020V080 CAVOK 30/17 Q1016 NOSIG
17:30
V
30 °C 10 km+ - 070°   070° 6 kt METAR LFBU 211530Z AUTO 07006KT 030V120 CAVOK 30/17 Q1016 NOSIG
17:00
V
30 °C 10 km+ - 080°   080° 4 kt METAR LFBU 211500Z AUTO 08004KT 050V130 CAVOK 30/17 Q1017 NOSIG
16:30
V
30 °C 10 km+ - Var   Var 4 kt METAR LFBU 211430Z AUTO VRB04KT CAVOK 30/17 Q1017 NOSIG
16:00
V
30 °C 10 km+ - 080°   080° 3 kt METAR LFBU 211400Z AUTO 08003KT 010V160 CAVOK 30/17 Q1018 NOSIG
15:30
V
29 °C 10 km+ - Var   Var 4 kt METAR LFBU 211330Z AUTO VRB04KT CAVOK 29/18 Q1018 NOSIG
15:00
V
29 °C 10 km+ - Var   Var 2 kt METAR LFBU 211300Z AUTO VRB02KT CAVOK 29/17 Q1018 NOSIG
14:30
V
28 °C 10 km+ - 060°   060° 5 kt METAR LFBU 211230Z AUTO 06005KT 350V120 CAVOK 28/17 Q1018 NOSIG
14:00
V
28 °C 10 km+ - Var   Var 4 kt METAR LFBU 211200Z AUTO VRB04KT CAVOK 28/16 Q1019 NOSIG
13:30
V
28 °C 10 km+ - Var   Var 5 kt METAR LFBU 211130Z AUTO VRB05KT CAVOK 28/16 Q1019 NOSIG
13:00
V
27 °C 10 km+ - 080°   080° 5 kt METAR LFBU 211100Z AUTO 08005KT 040V190 CAVOK 27/16 Q1019 NOSIG
12:30
V
27 °C 10 km+ - 100°   100° 4 kt METAR LFBU 211030Z AUTO 10004KT 050V160 CAVOK 27/16 Q1020 NOSIG
12:00
V
26 °C 10 km+ - 080°   080° 5 kt METAR LFBU 211000Z AUTO 08005KT 010V120 CAVOK 26/17 Q1020 NOSIG
11:30
V
25 °C 10 km+ - 060°   060° 4 kt METAR LFBU 210930Z AUTO 06004KT 360V130 CAVOK 25/16 Q1020 NOSIG
11:00
V
25 °C 10 km+ - Var   Var 3 kt METAR LFBU 210900Z AUTO VRB03KT CAVOK 25/17 Q1020 NOSIG
10:30
V
23 °C 10 km+ - Var   Var 3 kt METAR LFBU 210830Z AUTO VRB03KT CAVOK 23/16 Q1021 NOSIG
10:00
V
22 °C 10 km+ - Var   Var 1 kt METAR LFBU 210800Z AUTO VRB01KT CAVOK 22/17 Q1021 NOSIG
09:30
V
21 °C 10 km+ - Var   Var 1 kt METAR LFBU 210730Z AUTO VRB01KT CAVOK 21/16 Q1021 NOSIG
09:00
V
20 °C 10 km+ - Var   Var 1 kt METAR LFBU 210700Z AUTO VRB01KT CAVOK 20/16 Q1021 NOSIG
Dati più vecchi

Scarica la nostra applicazione

Facile accesso a tutte le previsioni dell'aviazione sul tuo cellulare e tablet.
Con molte caratteristiche non disponibili sul sito web, come il supporto offline e una lista personale di aeroporti.

Noi e le terze parti seguiamo il tuo comportamento in internet sul nostro sito web con i cookie. Se continui, riteniamo che tu sia d'accordo con la nostra politica sui cookie. Per saperne di più